地図

経路データ

SID SEASON NUMBER BASIN SUBBASIN NAME ISO_TIME NATURE LAT LON WMO_WIND WMO_PRES WMO_AGENCY TRACK_TYPE DIST2LAND LANDFALL IFLAG USA_AGENCY USA_ATCF_ID USA_LAT USA_LON USA_RECORD USA_STATUS USA_WIND USA_PRES USA_SSHS USA_R34_NE USA_R34_SE USA_R34_SW USA_R34_NW USA_R50_NE USA_R50_SE USA_R50_SW USA_R50_NW USA_R64_NE USA_R64_SE USA_R64_SW USA_R64_NW USA_POCI USA_ROCI USA_RMW USA_EYE TOKYO_LAT TOKYO_LON TOKYO_GRADE TOKYO_WIND TOKYO_PRES TOKYO_R50_DIR TOKYO_R50_LONG TOKYO_R50_SHORT TOKYO_R30_DIR TOKYO_R30_LONG TOKYO_R30_SHORT TOKYO_LAND CMA_LAT CMA_LON CMA_CAT CMA_WIND CMA_PRES HKO_LAT HKO_LON HKO_CAT HKO_WIND HKO_PRES NEWDELHI_LAT NEWDELHI_LON NEWDELHI_GRADE NEWDELHI_WIND NEWDELHI_PRES NEWDELHI_CI NEWDELHI_DP NEWDELHI_POCI REUNION_LAT REUNION_LON REUNION_TYPE REUNION_WIND REUNION_PRES REUNION_TNUM REUNION_CI REUNION_RMW REUNION_R34_NE REUNION_R34_SE REUNION_R34_SW REUNION_R34_NW REUNION_R50_NE REUNION_R50_SE REUNION_R50_SW REUNION_R50_NW REUNION_R64_NE REUNION_R64_SE REUNION_R64_SW REUNION_R64_NW BOM_LAT BOM_LON BOM_TYPE BOM_WIND BOM_PRES BOM_TNUM BOM_CI BOM_RMW BOM_R34_NE BOM_R34_SE BOM_R34_SW BOM_R34_NW BOM_R50_NE BOM_R50_SE BOM_R50_SW BOM_R50_NW BOM_R64_NE BOM_R64_SE BOM_R64_SW BOM_R64_NW BOM_ROCI BOM_POCI BOM_EYE BOM_POS_METHOD BOM_PRES_METHOD NADI_LAT NADI_LON NADI_CAT NADI_WIND NADI_PRES WELLINGTON_LAT WELLINGTON_LON WELLINGTON_WIND WELLINGTON_PRES DS824_LAT DS824_LON DS824_STAGE DS824_WIND DS824_PRES TD9636_LAT TD9636_LON TD9636_STAGE TD9636_WIND TD9636_PRES TD9635_LAT TD9635_LON TD9635_WIND TD9635_PRES TD9635_ROCI NEUMANN_LAT NEUMANN_LON NEUMANN_CLASS NEUMANN_WIND NEUMANN_PRES MLC_LAT MLC_LON MLC_CLASS MLC_WIND MLC_PRES USA_GUST BOM_GUST BOM_GUST_PER REUNION_GUST REUNION_GUST_PER USA_SEAHGT USA_SEARAD_NE USA_SEARAD_SE USA_SEARAD_SW USA_SEARAD_NW STORM_SPEED STORM_DIR
1898268N16302 1898 44 NA NA NOT_NAMED 1898-09-25 00:00:00 TS 16.2000 -58.3000 35 hurdat_atl main 681 681 O_____________ hurdat_atl AL071898 16.2000 -58.3000 TS 35 0 5 316
1898268N16302 1898 44 NA NA NOT_NAMED 1898-09-25 03:00:00 TS 16.3925 -58.4924 main 693 693 P_____________ AL071898 16.3925 -58.4924 TS 37 0 6 316
1898268N16302 1898 44 NA NA NOT_NAMED 1898-09-25 06:00:00 TS 16.6000 -58.7000 40 hurdat_atl main 705 705 O_____________ hurdat_atl AL071898 16.6000 -58.7000 TS 40 0 6 316
1898268N16302 1898 44 NA NA NOT_NAMED 1898-09-25 09:00:00 TS 16.8350 -58.9351 main 719 689 P_____________ AL071898 16.8350 -58.9351 TS 40 0 7 316
1898268N16302 1898 44 NA NA NOT_NAMED 1898-09-25 12:00:00 TS 17.1000 -59.2000 40 hurdat_atl main 689 662 O_____________ hurdat_atl AL071898 17.1000 -59.2000 TS 40 0 7 318
1898268N16302 1898 44 NA NA NOT_NAMED 1898-09-25 15:00:00 TS 17.3848 -59.4627 main 652 616 P_____________ AL071898 17.3848 -59.4627 TS 42 0 8 316
1898268N16302 1898 44 NA NA NOT_NAMED 1898-09-25 18:00:00 TS 17.7000 -59.8000 45 hurdat_atl main 616 571 O_____________ hurdat_atl AL071898 17.7000 -59.8000 TS 45 0 10 310
1898268N16302 1898 44 NA NA NOT_NAMED 1898-09-25 21:00:00 TS 18.0426 -60.2774 main 560 506 P_____________ AL071898 18.0426 -60.2774 TS 47 0 12 306
1898268N16302 1898 44 NA NA NOT_NAMED 1898-09-26 00:00:00 TS 18.4000 -60.8000 50 hurdat_atl main 506 465 O_____________ hurdat_atl AL071898 18.4000 -60.8000 TS 50 0 12 307
1898268N16302 1898 44 NA NA NOT_NAMED 1898-09-26 03:00:00 TS 18.7574 -61.2651 main 455 418 P_____________ AL071898 18.7574 -61.2651 TS 55 0 11 309
1898268N16302 1898 44 NA NA NOT_NAMED 1898-09-26 06:00:00 TS 19.1000 -61.7000 60 hurdat_atl main 418 384 O_____________ hurdat_atl AL071898 19.1000 -61.7000 TS 60 0 10 309
1898268N16302 1898 44 NA NA NOT_NAMED 1898-09-26 09:00:00 TS 19.3923 -62.1004 main 384 356 P_____________ AL071898 19.3923 -62.1004 TS 62 0 10 308
1898268N16302 1898 44 NA NA NOT_NAMED 1898-09-26 12:00:00 TS 19.7000 -62.5000 65 hurdat_atl main 356 335 O_____________ hurdat_atl AL071898 19.7000 -62.5000 HU 65 1 11 311
1898268N16302 1898 44 NA NA NOT_NAMED 1898-09-26 15:00:00 TS 20.0849 -62.9426 main 341 328 P_____________ AL071898 20.0849 -62.9426 HU 65 1 12 313
1898268N16302 1898 44 NA NA NOT_NAMED 1898-09-26 18:00:00 TS 20.5000 -63.4000 65 hurdat_atl main 329 321 O_____________ hurdat_atl AL071898 20.5000 -63.4000 HU 65 1 12 314
1898268N16302 1898 44 NA NA NOT_NAMED 1898-09-26 21:00:00 TS 20.9149 -63.8575 main 331 331 P_____________ AL071898 20.9149 -63.8575 HU 65 1 12 314
1898268N16302 1898 44 NA NA NOT_NAMED 1898-09-27 00:00:00 TS 21.3000 -64.3000 65 hurdat_atl main 351 351 O_____________ hurdat_atl AL071898 21.3000 -64.3000 HU 65 1 11 312
1898268N16302 1898 44 NA NA NOT_NAMED 1898-09-27 03:00:00 TS 21.6148 -64.7004 main 370 370 P_____________ AL071898 21.6148 -64.7004 HU 67 1 10 309
1898268N16302 1898 44 NA NA NOT_NAMED 1898-09-27 06:00:00 TS 21.9000 -65.1000 70 hurdat_atl main 394 393 O_____________ hurdat_atl AL071898 21.9000 -65.1000 HU 70 1 10 307
1898268N16302 1898 44 NA NA NOT_NAMED 1898-09-27 09:00:00 TS 22.1924 -65.5353 main 425 424 P_____________ AL071898 22.1924 -65.5353 HU 72 1 10 306
1898268N16302 1898 44 NA NA NOT_NAMED 1898-09-27 12:00:00 TS 22.5000 -66.0000 75 hurdat_atl main 458 458 O_____________ hurdat_atl AL071898 22.5000 -66.0000 HU 75 1 11 307
1898268N16302 1898 44 NA NA NOT_NAMED 1898-09-27 15:00:00 TS 22.8575 -66.5074 main 496 488 P_____________ AL071898 22.8575 -66.5074 HU 77 1 12 307
1898268N16302 1898 44 NA NA NOT_NAMED 1898-09-27 18:00:00 TS 23.2000 -67.0000 80 977 hurdat_atl main 496 492 O_____________ hurdat_atl AL071898 23.2000 -67.0000 HU 80 977 1 10 306
1898268N16302 1898 44 NA NA NOT_NAMED 1898-09-27 21:00:00 TS 23.4496 -67.3932 main 498 498 P_____________ AL071898 23.4496 -67.3932 HU 82 1 9 304
1898268N16302 1898 44 NA NA NOT_NAMED 1898-09-28 00:00:00 TS 23.7000 -67.8000 85 hurdat_atl main 511 507 O_____________ hurdat_atl AL071898 23.7000 -67.8000 HU 85 2 10 305
1898268N16302 1898 44 NA NA NOT_NAMED 1898-09-28 03:00:00 TS 24.0425 -68.3274 main 522 522 P_____________ AL071898 24.0425 -68.3274 HU 87 2 12 305
1898268N16302 1898 44 NA NA NOT_NAMED 1898-09-28 06:00:00 TS 24.4000 -68.9000 90 hurdat_atl main 543 530 O_____________ hurdat_atl AL071898 24.4000 -68.9000 HU 90 2 13 303
1898268N16302 1898 44 NA NA NOT_NAMED 1898-09-28 09:00:00 TS 24.7226 -69.4874 main 530 521 P_____________ AL071898 24.7226 -69.4874 HU 92 2 12 301
1898268N16302 1898 44 NA NA NOT_NAMED 1898-09-28 12:00:00 TS 25.0000 -70.0000 95 hurdat_atl main 523 517 O_____________ hurdat_atl AL071898 25.0000 -70.0000 HU 95 2 9 303
1898268N16302 1898 44 NA NA NOT_NAMED 1898-09-28 15:00:00 TS 25.2146 -70.3379 main 525 520 P_____________ AL071898 25.2146 -70.3379 HU 95 2 7 306
1898268N16302 1898 44 NA NA NOT_NAMED 1898-09-28 18:00:00 TS 25.4000 -70.6000 95 hurdat_atl main 529 524 O_____________ hurdat_atl AL071898 25.4000 -70.6000 HU 95 2 6 308
1898268N16302 1898 44 NA NA NOT_NAMED 1898-09-28 21:00:00 TS 25.5999 -70.8926 main 536 532 P_____________ AL071898 25.5999 -70.8926 HU 95 2 7 306
1898268N16302 1898 44 NA NA NOT_NAMED 1898-09-29 00:00:00 TS 25.8000 -71.2000 95 hurdat_atl main 545 542 O_____________ hurdat_atl AL071898 25.8000 -71.2000 HU 95 2 7 305
1898268N16302 1898 44 NA NA NOT_NAMED 1898-09-29 03:00:00 TS 26.0075 -71.5500 main 557 555 P_____________ AL071898 26.0075 -71.5500 HU 95 2 7 302
1898268N16302 1898 44 NA NA NOT_NAMED 1898-09-29 06:00:00 TS 26.2000 -71.9000 95 hurdat_atl main 569 566 O_____________ hurdat_atl AL071898 26.2000 -71.9000 HU 95 2 8 290
1898268N16302 1898 44 NA NA NOT_NAMED 1898-09-29 09:00:00 TS 26.3019 -72.4348 main 568 535 P_____________ AL071898 26.3574 -72.2151 HU 95 2 9 281
1898268N16302 1898 44 NA NA NOT_NAMED 1898-09-29 12:00:00 TS 26.3600 -72.8400 95 hurdat_atl main 535 507 O____________O hurdat_atl AL071898 26.5000 -72.5000 HU 95 2 25.8000 -74.2000 HU 85 6 278
1898268N16302 1898 44 NA NA NOT_NAMED 1898-09-29 15:00:00 TS 26.3929 -73.1489 main 507 480 P____________P AL071898 26.6499 -72.7576 HU 95 2 25.7025 -74.1925 HU 85 5 275
1898268N16302 1898 44 NA NA NOT_NAMED 1898-09-29 18:00:00 TS 26.4000 -73.4000 95 hurdat_atl main 480 466 O____________O hurdat_atl AL071898 26.8000 -73.0000 HU 95 2 25.6000 -74.2000 HU 85 4 282
1898268N16302 1898 44 NA NA NOT_NAMED 1898-09-29 21:00:00 TS 26.4742 -73.5833 main 466 447 P____________P AL071898 26.9650 -73.2574 HU 95 2 25.4925 -74.2350 HU 87 4 292
1898268N16302 1898 44 NA NA NOT_NAMED 1898-09-30 00:00:00 TS 26.5333 -73.7667 95 hurdat_atl main 447 438 O____________O hurdat_atl AL071898 27.1000 -73.5000 HU 95 2 25.4000 -74.3000 HU 90 3 282
1898268N16302 1898 44 NA NA NOT_NAMED 1898-09-30 03:00:00 TS 26.5374 -73.9210 main 438 424 P____________P AL071898 27.1499 -73.6927 HU 95 2 25.3125 -74.3776 HU 92 3 276
1898268N16302 1898 44 NA NA NOT_NAMED 1898-09-30 06:00:00 TS 26.5667 -74.1000 95 hurdat_atl main 424 406 O____________O hurdat_atl AL071898 27.2000 -73.9000 HU 95 2 25.3000 -74.5000 HU 95 4 292
1898268N16302 1898 44 NA NA NOT_NAMED 1898-09-30 09:00:00 TS 26.6891 -74.3392 main 410 389 P____________P AL071898 27.3275 -74.1775 HU 95 2 25.4124 -74.6626 HU 97 6 302
1898268N16302 1898 44 NA NA NOT_NAMED 1898-09-30 12:00:00 TS 26.8667 -74.6333 95 hurdat_atl main 394 367 O____________O hurdat_atl AL071898 27.5000 -74.5000 HU 95 2 25.6000 -74.9000 MH 100 7 303
1898268N16302 1898 44 NA NA NOT_NAMED 1898-09-30 15:00:00 TS 27.0592 -74.9708 main 373 357 P____________P AL071898 27.6925 -74.8425 HU 95 2 25.7926 -75.2275 MH 102 7 303
1898268N16302 1898 44 NA NA NOT_NAMED 1898-09-30 18:00:00 TS 27.2667 -75.3333 95 hurdat_atl main 364 349 O____________O hurdat_atl AL071898 27.9000 -75.2000 HU 95 2 26.0000 -75.6000 MH 105 8 303
1898268N16302 1898 44 NA NA NOT_NAMED 1898-09-30 21:00:00 TS 27.4641 -75.6810 main 352 342 P____________P AL071898 28.0999 -75.5501 HU 95 2 26.1924 -75.9427 MH 107 7 303
1898268N16302 1898 44 NA NA NOT_NAMED 1898-10-01 00:00:00 TS 27.6667 -76.0333 95 hurdat_atl main 352 341 O____________O hurdat_atl AL071898 28.3000 -75.9000 HU 95 2 26.4000 -76.3000 MH 110 8 304
1898268N16302 1898 44 NA NA NOT_NAMED 1898-10-01 03:00:00 TS 27.8883 -76.4000 main 350 346 P____________P AL071898 28.5074 -76.2501 HU 97 3 26.6500 -76.6999 MH 112 8 304
1898268N16302 1898 44 NA NA NOT_NAMED 1898-10-01 06:00:00 TS 28.1000 -76.7667 100 hurdat_atl main 347 324 O____________O hurdat_atl AL071898 28.7000 -76.6000 HU 100 3 26.9000 -77.1000 MH 115 7 299
1898268N16302 1898 44 NA NA NOT_NAMED 1898-10-01 09:00:00 TS 28.2516 -77.1319 main 328 302 P____________P AL071898 28.8574 -76.9502 HU 102 3 27.0401 -77.4953 MH 115 7 298
1898268N16302 1898 44 NA NA NOT_NAMED 1898-10-01 12:00:00 TS 28.4333 -77.4667 105 hurdat_atl main 293 273 O____________O hurdat_atl AL071898 29.0000 -77.3000 HU 105 3 27.3000 -77.8000 MH 115 7 313
1898268N16302 1898 44 NA NA NOT_NAMED 1898-10-01 15:00:00 TS 28.7373 -77.7337 main 273 249 P____________P AL071898 29.1499 -77.6501 HU 107 3 27.9122 -77.9008 MH 115 8 324
1898268N16302 1898 44 NA NA NOT_NAMED 1898-10-01 18:00:00 TS 29.0667 -78.0000 110 hurdat_atl main 252 231 O____________O hurdat_atl AL071898 29.3000 -78.0000 HU 110 3 28.6000 -78.0000 MH 115 8 319
1898268N16302 1898 44 NA NA NOT_NAMED 1898-10-01 21:00:00 TS 29.3390 -78.3225 main 231 207 P____________P AL071898 29.4498 -78.3352 HU 112 3 29.1175 -78.2972 MH 115 8 309
1898268N16302 1898 44 NA NA NOT_NAMED 1898-10-02 00:00:00 TS 29.5667 -78.7000 115 hurdat_atl main 213 186 O____________O hurdat_atl AL071898 29.6000 -78.7000 HU 115 4 29.5000 -78.7000 MH 115 8 299
1898268N16302 1898 44 NA NA NOT_NAMED 1898-10-02 03:00:00 TS 29.7332 -79.1279 main 186 154 P____________P AL071898 29.7349 -79.1278 HU 115 4 29.7299 -79.1282 MH 115 8 293
1898268N16302 1898 44 NA NA NOT_NAMED 1898-10-02 06:00:00 TS 29.9000 -79.6000 115 hurdat_atl main 154 128 O____________O hurdat_atl AL071898 29.9000 -79.6000 HU 115 4 29.9000 -79.6000 MH 115 9 295
1898268N16302 1898 44 NA NA NOT_NAMED 1898-10-02 09:00:00 TS 30.1176 -80.0760 main 119 83 P____________P AL071898 30.1128 -80.0751 HU 115 4 30.1272 -80.0780 MH 115 10 300
1898268N16302 1898 44 NA NA NOT_NAMED 1898-10-02 12:00:00 TS 30.4000 -80.6000 115 938 hurdat_atl main 83 19 O____________O hurdat_atl AL071898 30.4000 -80.6000 HU 115 938 4 30.4000 -80.6000 MH 115 938 12 304
1898268N16302 1898 44 NA NA NOT_NAMED 1898-10-02 15:00:00 TS 30.7628 -81.1902 main 19 0 P____________P AL071898 30.7806 -81.1964 HU 115 938 4 30.7273 -81.1778 MH 102 13 305
1898268N16302 1898 44 NA NA NOT_NAMED 1898-10-02 16:00:00 TS 30.8826 -81.3938 115 938 hurdat_atl main 0 0 O____________P hurdat_atl AL071898 30.9000 -81.4000 L HU 115 938 4 30.8477 -81.3815 MH 98 12 303
1898268N16302 1898 44 NA NA NOT_NAMED 1898-10-02 18:00:00 TS 31.1000 -81.8000 90 hurdat_atl main 0 0 O____________O hurdat_atl AL071898 31.1000 -81.8000 HU 90 2 31.1000 -81.8000 HU 90 13 303
1898268N16302 1898 44 NA NA NOT_NAMED 1898-10-02 21:00:00 TS 31.4820 -82.4533 main 0 0 P____________P AL071898 31.4768 -82.4512 HU 77 1 31.4925 -82.4576 HU 77 14 306
1898268N16302 1898 44 NA NA NOT_NAMED 1898-10-03 00:00:00 TS 31.9000 -83.1000 65 hurdat_atl main 0 0 O____________O hurdat_atl AL071898 31.9000 -83.1000 HU 65 1 31.9000 -83.1000 HU 65 13 308
1898268N16302 1898 44 NA NA NOT_NAMED 1898-10-03 03:00:00 TS 32.2996 -83.6731 main 0 0 P____________P AL071898 32.2996 -83.6731 HU 55 0 32.2996 -83.6731 HU 55 12 311
1898268N16302 1898 44 NA NA NOT_NAMED 1898-10-03 06:00:00 TS 32.7000 -84.2000 45 hurdat_atl main 0 0 O____________O hurdat_atl AL071898 32.7000 -84.2000 TS 45 0 32.7000 -84.2000 TS 45 12 312
1898268N16302 1898 44 NA NA NOT_NAMED 1898-10-03 09:00:00 TS 33.0999 -84.7228 main 0 0 P____________P AL071898 33.0998 -84.7154 TS 40 0 33.1000 -84.7376 TS 40 12 314
1898268N16302 1898 44 NA NA NOT_NAMED 1898-10-03 12:00:00 TS 33.5000 -85.2000 35 hurdat_atl main 0 0 O____________O hurdat_atl AL071898 33.5000 -85.2000 TS 35 0 33.5000 -85.2000 TS 35 11 317
1898268N16302 1898 44 NA NA NOT_NAMED 1898-10-03 15:00:00 TS 33.8972 -85.6181 main 0 0 P____________P AL071898 33.8923 -85.6655 TS 32 -1 33.9071 -85.5232 TS 32 10 320
1898268N16302 1898 44 NA NA NOT_NAMED 1898-10-03 18:00:00 TS 34.3000 -86.0000 30 hurdat_atl main 0 0 O____________O hurdat_atl AL071898 34.3000 -86.1000 TD 30 -1 34.3000 -85.8000 TD 30 10 320
1898268N16302 1898 44 NA NA NOT_NAMED 1898-10-03 21:00:00 TS 34.6842 -86.4062 main 0 0 P____________P AL071898 34.7199 -86.5230 TD 30 -1 34.6127 -86.1728 TD 30 10 323
1898268N16302 1898 44 NA NA NOT_NAMED 1898-10-04 00:00:00 TS 35.1333 -86.7667 30 hurdat_atl main 0 0 O____________O hurdat_atl AL071898 35.2000 -86.9000 TD 30 -1 35.0000 -86.5000 TD 30 998 12 333
1898268N16302 1898 44 NA NA NOT_NAMED 1898-10-04 03:00:00 TS 35.7199 -87.0493 main 0 0 P____________P AL071898 35.7774 -87.2301 TD 30 -1 35.6049 -86.6878 TD 30 998 13 342
1898268N16302 1898 44 NA NA NOT_NAMED 1898-10-04 06:00:00 TS 36.3667 -87.2667 30 hurdat_atl main 0 0 O____________I hurdat_atl AL071898 36.4000 -87.5000 TD 30 -1 36.3000 -86.8000 TD 30 998 13 344
1898268N16302 1898 44 NA NA NOT_NAMED 1898-10-04 09:00:00 TS 36.9883 -87.4977 main 0 0 P____________P AL071898 36.9775 -87.7668 TD 30 -1 37.0099 -86.9594 TD 30 998 13 348
1898268N16302 1898 44 NA NA NOT_NAMED 1898-10-04 12:00:00 TS 37.6000 -87.6000 30 hurdat_atl main 0 0 O____________O hurdat_atl AL071898 37.6000 -87.9000 TD 30 -1 37.6000 -87.0000 TD 30 999 12 358
1898268N16302 1898 44 NA NA NOT_NAMED 1898-10-04 15:00:00 TS 38.1703 -87.5352 main 0 0 P____________P AL071898 38.2968 -87.8828 TD 30 -1 37.9173 -86.8401 TD 30 12 14
1898268N16302 1898 44 NA NA NOT_NAMED 1898-10-04 18:00:00 TS 38.7667 -87.2333 30 hurdat_atl main 0 0 O____________O hurdat_atl AL071898 39.1000 -87.6000 TD 30 -1 38.1000 -86.5000 TD 30 14 26
1898268N16302 1898 44 NA NA NOT_NAMED 1898-10-04 21:00:00 TS 39.4075 -86.7639 main 0 0 P____________P AL071898 40.0191 -87.0559 TD 27 -1 38.1845 -86.1798 TD 27 17 35
1898268N16302 1898 44 NA NA NOT_NAMED 1898-10-05 00:00:00 TS 40.1667 -85.9667 25 hurdat_atl main 0 0 O____________O hurdat_atl AL071898 41.0000 -86.2000 TD 25 -1 38.5000 -85.5000 TD 25 23 42
1898268N16302 1898 44 NA NA NOT_NAMED 1898-10-05 03:00:00 TS 41.1091 -84.7907 main 0 0 P____________P AL071898 41.9718 -85.1190 TD 25 -1 39.3836 -84.1341 TD 25 28 42
1898268N16302 1898 44 NA NA NOT_NAMED 1898-10-05 06:00:00 TS 42.2455 -83.4455 25 hurdat_atl main 0 0 O____________O hurdat_atl AL071898 42.9000 -83.8000 TD 25 -1 40.5000 -82.5000 TD 25 30 42
1898268N16302 1898 44 NA NA NOT_NAMED 1898-10-05 09:00:00 TS 43.3135 -82.1360 main 0 0 P____________P AL071898 43.7571 -82.4022 TD 25 -1 41.5392 -81.0712 TD 25 29 45
1898268N16302 1898 44 NA NA NOT_NAMED 1898-10-05 12:00:00 MX 44.2778 -80.6889 25 hurdat_atl main 0 0 O____________O hurdat_atl AL071898 44.5000 -80.8000 TD 25 -1 42.5000 -79.8000 EX 25 28 51
1898268N16302 1898 44 NA NA NOT_NAMED 1898-10-05 15:00:00 TS 45.1046 -79.0445 main 0 0 P_____________ AL071898 45.1046 -79.0445 TD 25 -1 EX 29 63
1898268N16302 1898 44 NA NA NOT_NAMED 1898-10-05 18:00:00 TS 45.6000 -77.0000 25 hurdat_atl main 0 0 O_____________ hurdat_atl AL071898 45.6000 -77.0000 TD 25 -1 32 73
1898268N16302 1898 44 NA NA NOT_NAMED 1898-10-05 21:00:00 TS 46.0460 -74.6773 main 0 0 P_____________ AL071898 46.0460 -74.6773 TD 25 -1 36 77
1898268N16302 1898 44 NA NA NOT_NAMED 1898-10-06 00:00:00 TS 46.4000 -72.0000 25 hurdat_atl main 0 0 O_____________ hurdat_atl AL071898 46.4000 -72.0000 TD 25 -1 39 81
1898268N16302 1898 44 NA NA NOT_NAMED 1898-10-06 03:00:00 TS 46.6382 -69.0447 main 0 0 P_____________ AL071898 46.6382 -69.0447 TD 25 -1 43 85
1898268N16302 1898 44 NA NA NOT_NAMED 1898-10-06 06:00:00 TS 46.8000 -65.8000 25 hurdat_atl main 0 0 O_____________ hurdat_atl AL071898 46.8000 -65.8000 TD 25 -1 46 87
1898268N16302 1898 44 NA NA NOT_NAMED 1898-10-06 09:00:00 TS 46.8566 -62.2714 main 55 0 P_____________ AL071898 46.8566 -62.2714 TD 25 -1 48 88
1898268N16302 1898 44 NA NA NOT_NAMED 1898-10-06 12:00:00 TS 47.0000 -58.8000 25 hurdat_atl main 66 0 O_____________ hurdat_atl AL071898 47.0000 -58.8000 TD 25 -1 45 83
1898268N16302 1898 44 NA NA NOT_NAMED 1898-10-06 15:00:00 TS 47.4221 -55.7024 main 0 0 P_____________ AL071898 47.4221 -55.7024 TD 25 -1 42 76
1898268N16302 1898 44 NA NA NOT_NAMED 1898-10-06 18:00:00 TS 48.0000 -52.8000 25 hurdat_atl main 11 O_____________ hurdat_atl AL071898 48.0000 -52.8000 TD 25 -1 40 73

IBTrACS Databaseについて

本データベースは、米国NOAAが公開する1842年以降の世界の熱帯低気圧のベストトラックデータアーカイブInternational Best Track Archive for Climate Stewardship (IBTrACS)を、ウェブで閲覧しやすい形式に変換したものです。

最終更新日:2021-10-19